Time;durP1;ratioP1;P1;durP2;ratioP2;P2;SDS_P1;SDS_P2;PMS_P1;PMS_P2;Temp;Humidity;BMP_temperature;BMP_pressure;BME280_temperature;BME280_humidity;BME280_pressure;Samples;Min_cycle;Max_cycle;Signal;HPM_P1;HPM_P2
2022/09/17 00:01:38;;;;;;;0.40;0.30;;;;;;;22.49;100.00;94580.34;5114527;28;20415;-58
2022/09/17 00:04:07;;;;;;;0.40;0.30;;;;;;;22.53;100.00;94568.44;5114418;28;20477;-59
2022/09/17 00:06:37;;;;;;;0.40;0.30;;;;;;;22.26;100.00;94534.47;5114421;28;20421;-59
2022/09/17 00:09:07;;;;;;;0.40;0.20;;;;;;;22.47;100.00;94559.09;5114392;28;20460;-59
2022/09/17 00:11:38;;;;;;;0.50;0.30;;;;;;;22.36;100.00;94563.56;5114391;28;20434;-59
2022/09/17 00:14:08;;;;;;;0.70;0.30;;;;;;;22.26;100.00;94557.97;5114354;28;20875;-59
2022/09/17 00:16:39;;;;;;;0.40;0.30;;;;;;;22.30;100.00;94551.50;5113908;28;20989;-59
2022/09/17 00:19:13;;;;;;;1.27;0.43;;;;;;;21.72;100.00;94502.28;5114152;28;20917;-58
2022/09/17 00:21:43;;;;;;;0.40;0.20;;;;;;;22.10;100.00;94556.19;5113605;28;20502;-59
2022/09/17 00:24:14;;;;;;;0.50;0.30;;;;;;;22.17;100.00;94565.53;5114396;27;20423;-59
2022/09/17 00:26:42;;;;;;;0.50;0.40;;;;;;;22.20;100.00;94576.38;5114414;28;20416;-58
2022/09/17 00:29:11;;;;;;;0.40;0.30;;;;;;;22.16;100.00;94567.47;5113945;28;20955;-58
2022/09/17 00:31:40;;;;;;;0.50;0.30;;;;;;;22.23;100.00;94569.50;5113959;28;20419;-58
2022/09/17 00:34:10;;;;;;;1.23;1.23;;;;;;;22.30;100.00;94573.09;5113823;28;20427;-58
2022/09/17 00:36:40;;;;;;;0.40;0.30;;;;;;;22.23;100.00;94566.78;5114082;28;20463;-59
2022/09/17 00:39:14;;;;;;;0.50;0.30;;;;;;;22.04;100.00;94573.00;5113775;28;20420;-58
2022/09/17 00:41:43;;;;;;;0.40;0.30;;;;;;;21.74;100.00;94577.44;5113936;28;20493;-58
2022/09/17 00:44:47;;;;;;;0.47;0.27;;;;;;;21.09;100.00;94584.63;5113811;28;20466;-58
2022/09/17 00:47:23;;;;;;;0.60;0.50;;;;;;;20.84;100.00;94597.53;5030756;28;20435;-58
2022/09/17 00:49:55;;;;;;;0.40;0.20;;;;;;;21.28;100.00;94595.41;5030790;28;20445;-59
2022/09/17 00:52:28;;;;;;;0.40;0.20;;;;;;;21.61;100.00;94586.81;5076700;28;20933;-58
2022/09/17 00:55:02;;;;;;;0.50;0.30;;;;;;;21.84;100.00;94572.25;5113662;28;20486;-58
2022/09/17 00:57:31;;;;;;;0.40;0.20;;;;;;;21.79;100.00;94574.47;5113205;28;20466;-58
2022/09/17 01:00:00;;;;;;;0.40;0.23;;;;;;;19.68;100.00;94296.22;5113624;28;20431;-58
2022/09/17 01:02:28;;;;;;;1.03;0.90;;;;;;;21.76;100.00;94588.66;5113432;27;20431;-58
2022/09/17 01:04:57;;;;;;;0.40;0.20;;;;;;;21.67;100.00;94585.41;5113227;28;20415;-58
2022/09/17 01:07:48;;;;;;;0.87;0.40;;;;;;;21.84;100.00;94585.75;5113485;28;20905;-58
2022/09/17 01:10:28;;;;;;;0.40;0.20;;;;;;;21.86;100.00;94588.09;5113038;28;20488;-58
2022/09/17 01:13:10;;;;;;;0.67;0.27;;;;;;;21.83;100.00;94578.03;5113055;27;20439;-59
2022/09/17 01:15:46;;;;;;;0.40;0.20;;;;;;;21.81;100.00;94577.56;5112992;28;20520;-59
2022/09/17 01:18:29;;;;;;;0.50;0.30;;;;;;;21.39;100.00;94588.34;5112951;28;21024;-59
2022/09/17 01:21:38;;;;;;;0.50;0.30;;;;;;;20.97;100.00;94595.50;5113307;28;20424;-59
2022/09/17 01:24:44;;;;;;;0.47;0.30;;;;;;;20.89;100.00;94579.19;5112741;28;20442;-59
2022/09/17 01:27:45;;;;;;;0.90;0.33;;;;;;;21.25;100.00;94579.97;5113183;28;20416;-59
2022/09/17 01:30:43;;;;;;;0.40;0.20;;;;;;;21.68;100.00;94597.78;5106195;28;20443;-59
2022/09/17 01:33:20;;;;;;;0.50;0.40;;;;;;;21.63;100.00;94595.38;5078984;28;20442;-58
2022/09/17 01:35:55;;;;;;;0.40;0.20;;;;;;;21.19;100.00;94571.38;5112634;28;20478;-59
2022/09/17 01:38:29;;;;;;;0.50;0.30;;;;;;;21.50;100.00;94598.19;5112686;28;20423;-59
2022/09/17 01:41:11;;;;;;;0.40;0.20;;;;;;;21.47;100.00;94593.53;5112586;28;20424;-59
2022/09/17 01:43:46;;;;;;;0.40;0.30;;;;;;;21.29;100.00;94576.22;5112546;28;20427;-59
2022/09/17 01:46:21;;;;;;;0.40;0.30;;;;;;;21.43;100.00;94587.25;5112857;28;20419;-59
2022/09/17 01:48:55;;;;;;;0.40;0.20;;;;;;;21.46;100.00;94567.69;5112498;28;20451;-58
2022/09/17 01:51:26;;;;;;;0.40;0.20;;;;;;;21.52;100.00;94574.38;5112401;28;20437;-58
2022/09/17 01:53:58;;;;;;;0.40;0.20;;;;;;;21.53;100.00;94575.13;5112407;28;20423;-58
2022/09/17 01:56:33;;;;;;;0.40;0.20;;;;;;;21.52;100.00;94571.66;5112226;28;21137;-59
2022/09/17 01:59:22;;;;;;;0.40;0.30;;;;;;;21.50;100.00;94570.47;5112651;28;20643;-58
2022/09/17 02:01:56;;;;;;;0.40;0.20;;;;;;;21.47;100.00;94563.88;5112297;28;20434;-59
2022/09/17 02:04:30;;;;;;;0.40;0.30;;;;;;;21.31;100.00;94575.84;5112171;28;20477;-59
2022/09/17 02:07:03;;;;;;;0.50;0.37;;;;;;;21.36;100.00;94579.03;5112519;28;20799;-58
2022/09/17 02:09:37;;;;;;;0.40;0.30;;;;;;;20.56;100.00;94600.34;5112454;28;20458;-59
2022/09/17 02:12:11;;;;;;;0.40;0.30;;;;;;;20.77;100.00;94579.28;5112483;28;20419;-58
2022/09/17 02:14:47;;;;;;;0.47;0.30;;;;;;;20.86;100.00;94571.81;5112491;28;20422;-58
2022/09/17 02:17:24;;;;;;;0.50;0.40;;;;;;;20.74;100.00;94566.53;5112033;28;20466;-58
2022/09/17 02:19:55;;;;;;;0.40;0.30;;;;;;;21.00;100.00;94565.91;5112050;28;20948;-58
2022/09/17 02:22:30;;;;;;;1.37;1.37;;;;;;;20.95;100.00;94560.81;5112002;28;20956;-58
2022/09/17 02:25:04;;;;;;;0.60;0.30;;;;;;;20.77;100.00;94555.03;5112139;28;20415;-58
2022/09/17 02:27:44;;;;;;;0.40;0.30;;;;;;;21.12;100.00;94547.00;5112275;28;20460;-58
2022/09/17 02:30:14;;;;;;;0.40;0.30;;;;;;;20.90;100.00;94548.41;5112250;28;20418;-60
2022/09/17 02:32:42;;;;;;;0.40;0.20;;;;;;;21.08;100.00;94542.63;5111947;28;20959;-58
2022/09/17 02:35:13;;;;;;;0.50;0.30;;;;;;;20.87;100.00;94499.88;5112183;28;20808;-58
2022/09/17 02:37:41;;;;;;;0.40;0.20;;;;;;;21.21;100.00;94550.25;5112141;28;20533;-58
2022/09/17 02:40:12;;;;;;;0.40;0.30;;;;;;;21.15;100.00;94551.66;5111999;28;20423;-58
2022/09/17 02:42:59;;;;;;;0.50;0.30;;;;;;;21.16;100.00;94555.13;5111887;28;20503;-58
2022/09/17 02:45:40;;;;;;;0.40;0.30;;;;;;;21.11;100.00;94563.50;5114201;28;20408;-58
2022/09/17 02:48:30;;;;;;;0.93;0.63;;;;;;;21.10;100.00;94562.69;5116212;28;20431;-58
2022/09/17 02:51:12;;;;;;;4.67;0.30;;;;;;;20.84;100.00;94546.34;5115784;28;20419;-58
2022/09/17 02:53:52;;;;;;;0.40;0.20;;;;;;;20.91;100.00;94554.59;5116103;28;20799;-58
2022/09/17 02:56:32;;;;;;;0.40;0.20;;;;;;;20.95;100.00;94550.03;5115793;28;20463;-58
2022/09/17 02:59:12;;;;;;;0.40;0.30;;;;;;;20.87;100.00;94549.09;5116123;28;20430;-58
2022/09/17 03:01:44;;;;;;;0.40;0.30;;;;;;;20.95;100.00;94546.59;5115947;28;20480;-58
2022/09/17 03:04:16;;;;;;;0.40;0.30;;;;;;;20.22;100.00;94539.91;5115582;28;20435;-58
2022/09/17 03:06:47;;;;;;;0.40;0.30;;;;;;;20.26;100.00;94529.28;5115574;28;20422;-59
2022/09/17 03:09:16;;;;;;;0.50;0.30;;;;;;;20.39;100.00;94533.41;5115832;28;20438;-59
2022/09/17 03:11:44;;;;;;;0.50;0.30;;;;;;;20.68;100.00;94537.53;5115531;28;20955;-59
2022/09/17 03:14:13;;;;;;;0.50;0.40;;;;;;;20.77;100.00;94516.59;5115768;28;20426;-59
2022/09/17 03:16:41;;;;;;;0.40;0.20;;;;;;;20.66;100.00;94516.34;5115589;28;20532;-59
2022/09/17 03:19:09;;;;;;;0.50;0.30;;;;;;;20.69;100.00;94515.66;5115382;27;20497;-59
2022/09/17 03:21:37;;;;;;;0.50;0.40;;;;;;;20.54;100.00;94513.00;5115185;28;20423;-59
2022/09/17 03:24:07;;;;;;;0.40;0.20;;;;;;;20.45;100.00;94515.88;5115477;28;20419;-59
2022/09/17 03:26:36;;;;;;;0.40;0.30;;;;;;;20.61;100.00;94518.53;5115506;28;20472;-59
2022/09/17 03:29:04;;;;;;;0.50;0.30;;;;;;;20.65;100.00;94522.06;5115382;28;20424;-59
2022/09/17 03:31:33;;;;;;;0.40;0.20;;;;;;;20.78;100.00;94512.75;5115378;28;20920;-59
2022/09/17 03:34:01;;;;;;;0.50;0.40;;;;;;;20.76;100.00;94505.03;5115009;28;21127;-59
2022/09/17 03:36:29;;;;;;;0.40;0.30;;;;;;;20.30;100.00;94513.19;5114896;28;20845;-59
2022/09/17 03:38:59;;;;;;;0.40;0.30;;;;;;;20.32;100.00;94514.41;5115274;28;20432;-59
2022/09/17 03:41:28;;;;;;;0.40;0.30;;;;;;;20.56;100.00;94508.03;5115057;28;20419;-59
2022/09/17 03:43:57;;;;;;;0.40;0.20;;;;;;;20.26;100.00;94513.88;5114970;28;20426;-58
2022/09/17 03:46:25;;;;;;;0.40;0.30;;;;;;;19.95;100.00;94507.72;5115304;28;20424;-58
2022/09/17 03:48:53;;;;;;;0.90;0.70;;;;;;;20.17;100.00;94504.41;5115187;28;20423;-59
2022/09/17 03:51:22;;;;;;;0.40;0.20;;;;;;;20.08;100.00;94496.53;5114949;28;20889;-59
2022/09/17 03:53:50;;;;;;;0.50;0.30;;;;;;;20.23;100.00;94482.31;5115184;28;20423;-59
2022/09/17 03:56:19;;;;;;;4.00;0.40;;;;;;;19.56;100.00;94472.59;5113454;28;20424;-59
2022/09/17 03:58:49;;;;;;;0.40;0.30;;;;;;;19.75;100.00;94501.47;5114532;28;20483;-57
2022/09/17 04:01:17;;;;;;;0.60;0.60;;;;;;;19.71;100.00;94481.03;5114995;28;20762;-61
2022/09/17 04:03:45;;;;;;;0.40;0.30;;;;;;;19.86;100.00;94502.50;5114900;28;20412;-58
2022/09/17 04:06:13;;;;;;;0.60;0.60;;;;;;;19.51;100.00;94499.72;5114549;28;20427;-58
2022/09/17 04:08:42;;;;;;;0.40;0.30;;;;;;;19.86;100.00;94493.69;5114334;28;20430;-58
2022/09/17 04:11:10;;;;;;;0.60;0.30;;;;;;;20.13;100.00;94471.28;5114105;28;20435;-58
2022/09/17 04:13:39;;;;;;;0.50;0.40;;;;;;;20.32;100.00;94474.03;5114775;28;20423;-58
2022/09/17 04:16:09;;;;;;;0.60;0.40;;;;;;;20.39;100.00;94478.81;5114441;28;20472;-59
2022/09/17 04:18:37;;;;;;;0.50;0.30;;;;;;;20.19;100.00;94421.44;5114376;28;20412;-58
2022/09/17 04:21:06;;;;;;;0.50;0.40;;;;;;;20.44;100.00;94473.91;5114647;28;20435;-59
2022/09/17 04:23:35;;;;;;;0.60;0.50;;;;;;;20.72;100.00;94460.31;5114304;28;20936;-59
2022/09/17 04:26:03;;;;;;;0.43;0.30;;;;;;;20.79;100.00;94455.84;5114519;28;20423;-58
2022/09/17 04:28:32;;;;;;;0.50;0.50;;;;;;;20.13;100.00;94458.59;5114300;28;20956;-58
2022/09/17 04:31:00;;;;;;;0.60;0.50;;;;;;;19.66;100.00;94452.47;5114186;27;20416;-58
2022/09/17 04:33:31;;;;;;;0.50;0.30;;;;;;;20.02;100.00;94460.25;5114023;28;20419;-59
2022/09/17 04:35:59;;;;;;;0.50;0.40;;;;;;;20.60;100.00;94476.56;5114352;28;20427;-58
2022/09/17 04:38:27;;;;;;;0.40;0.30;;;;;;;20.73;100.00;94480.69;5113878;28;21019;-58
2022/09/17 04:40:56;;;;;;;0.40;0.20;;;;;;;20.65;100.00;94477.06;5114117;28;20419;-58
2022/09/17 04:43:24;;;;;;;0.53;0.40;;;;;;;20.85;100.00;94478.66;5114163;28;20423;-58
2022/09/17 04:45:53;;;;;;;0.50;0.40;;;;;;;21.19;100.00;94479.75;5114059;28;20435;-58
2022/09/17 04:48:21;;;;;;;0.53;0.40;;;;;;;20.66;100.00;94472.47;5113995;28;20452;-58
2022/09/17 04:50:51;;;;;;;0.50;0.30;;;;;;;20.63;100.00;94478.56;5114058;28;20472;-58
2022/09/17 04:53:19;;;;;;;0.67;0.60;;;;;;;20.98;100.00;94479.28;5113609;28;20416;-58
2022/09/17 04:55:48;;;;;;;0.40;0.30;;;;;;;21.10;100.00;94479.19;5113842;28;20425;-58
2022/09/17 04:58:16;;;;;;;0.40;0.30;;;;;;;21.12;100.00;94479.63;5113216;28;20487;-58
2022/09/17 05:00:45;;;;;;;0.40;0.30;;;;;;;21.33;100.00;94476.53;5113812;28;20442;-58
2022/09/17 05:03:13;;;;;;;0.50;0.30;;;;;;;21.38;100.00;94479.72;5113700;28;20432;-58
2022/09/17 05:05:41;;;;;;;0.40;0.30;;;;;;;21.26;100.00;94474.50;5112807;28;20416;-58
2022/09/17 05:08:11;;;;;;;0.47;0.40;;;;;;;19.80;100.00;94347.16;5112609;28;20431;-58
2022/09/17 05:10:39;;;;;;;0.90;0.50;;;;;;;20.61;100.00;94497.00;5113182;28;20435;-58
2022/09/17 05:13:08;;;;;;;0.60;0.30;;;;;;;20.88;100.00;94486.03;5113167;28;20415;-58
2022/09/17 05:15:36;;;;;;;0.40;0.20;;;;;;;21.04;100.00;94466.31;5113124;27;20913;-58
2022/09/17 05:18:04;;;;;;;0.40;0.30;;;;;;;21.30;100.00;94471.88;5113285;28;20475;-58
2022/09/17 05:20:33;;;;;;;0.40;0.30;;;;;;;21.37;100.00;94485.47;5112769;28;20427;-58
2022/09/17 05:23:01;;;;;;;1.00;0.90;;;;;;;21.46;100.00;94488.72;5112906;28;20420;-58
2022/09/17 05:25:31;;;;;;;0.50;0.40;;;;;;;21.71;100.00;94489.94;5112915;28;21062;-58
2022/09/17 05:28:00;;;;;;;0.50;0.40;;;;;;;22.08;100.00;94498.31;5113227;28;20889;-58
2022/09/17 05:30:29;;;;;;;0.67;0.67;;;;;;;21.40;100.00;94482.84;5112767;28;20416;-56
2022/09/17 05:33:01;;;;;;;0.53;0.40;;;;;;;21.45;100.00;94496.03;5112730;28;20469;-55
2022/09/17 05:35:31;;;;;;;0.83;0.83;;;;;;;21.89;100.00;94504.53;5112904;28;20434;-56
2022/09/17 05:38:00;;;;;;;0.60;0.60;;;;;;;22.06;100.00;94508.69;5112516;28;20470;-57
2022/09/17 05:40:31;;;;;;;0.40;0.30;;;;;;;22.29;100.00;94517.53;5112515;28;20432;-57
2022/09/17 05:43:00;;;;;;;0.67;0.60;;;;;;;22.30;100.00;94504.81;5112472;28;20797;-57
2022/09/17 05:45:30;;;;;;;0.50;0.30;;;;;;;22.26;100.00;94526.38;5112633;28;20805;-57
2022/09/17 05:48:00;;;;;;;0.40;0.30;;;;;;;22.11;100.00;94541.53;5112385;28;20436;-57
2022/09/17 05:50:29;;;;;;;1.23;0.80;;;;;;;21.87;100.00;94531.09;5112594;27;20806;-56
2022/09/17 05:53:00;;;;;;;0.83;0.83;;;;;;;21.53;100.00;94489.63;5112563;28;20424;-57
2022/09/17 05:55:30;;;;;;;0.40;0.30;;;;;;;21.85;100.00;94556.84;5111940;28;20509;-60
2022/09/17 05:57:59;;;;;;;0.40;0.30;;;;;;;22.30;100.00;94559.59;5112174;28;20486;-60
2022/09/17 06:00:27;;;;;;;0.50;0.43;;;;;;;22.05;100.00;94558.41;5112639;28;20442;-60
2022/09/17 06:02:56;;;;;;;1.03;0.73;;;;;;;21.66;100.00;94552.25;5112155;28;20817;-60
2022/09/17 06:05:25;;;;;;;0.50;0.37;;;;;;;21.76;100.00;94518.53;5112268;28;20500;-61
2022/09/17 06:07:53;;;;;;;0.50;0.47;;;;;;;21.97;100.00;94557.50;5112086;28;20955;-61
2022/09/17 06:10:21;;;;;;;0.53;0.50;;;;;;;22.31;100.00;94554.97;5112469;28;20447;-52
2022/09/17 06:12:56;;;;;;;0.70;0.50;;;;;;;22.22;100.00;94547.13;5112424;28;20419;-56
2022/09/17 06:15:25;;;;;;;0.60;0.30;;;;;;;21.85;100.00;94554.16;5112410;28;20457;-54
2022/09/17 06:17:54;;;;;;;0.80;0.57;;;;;;;22.20;100.00;94554.00;5111941;28;20459;-55
2022/09/17 06:20:22;;;;;;;0.50;0.30;;;;;;;22.19;100.00;94539.72;5110972;28;20431;-54
2022/09/17 06:22:57;;;;;;;0.40;0.30;;;;;;;22.51;100.00;94527.53;5111936;28;20445;-54
2022/09/17 06:25:27;;;;;;;0.40;0.30;;;;;;;22.54;100.00;94523.31;5112068;28;20422;-55
2022/09/17 06:27:57;;;;;;;0.50;0.37;;;;;;;21.73;100.00;94404.03;5112407;28;20438;-54
2022/09/17 06:30:26;;;;;;;11.93;4.13;;;;;;;21.95;100.00;94486.13;5112100;28;20463;-55
2022/09/17 06:33:00;;;;;;;1.07;0.97;;;;;;;22.75;100.00;94535.22;5111538;28;20507;-54
2022/09/17 06:35:29;;;;;;;0.50;0.40;;;;;;;23.57;100.00;94537.06;5112215;28;20905;-53
2022/09/17 06:37:58;;;;;;;0.60;0.47;;;;;;;23.58;100.00;94459.41;5112090;28;20463;-54
2022/09/17 06:40:26;;;;;;;0.70;0.40;;;;;;;23.97;100.00;94452.41;5112083;28;20416;-55
2022/09/17 06:42:58;;;;;;;1.60;0.40;;;;;;;24.39;100.00;94519.66;5112001;28;20913;-55
2022/09/17 06:45:27;;;;;;;1.27;0.40;;;;;;;24.25;100.00;94522.28;5111461;28;20925;-54
2022/09/17 06:47:56;;;;;;;4.97;0.57;;;;;;;24.88;100.00;94516.53;5111921;28;20439;-54
2022/09/17 06:50:24;;;;;;;1.30;1.30;;;;;;;25.45;95.52;94512.16;5111736;28;20419;-53
2022/09/17 06:52:54;;;;;;;0.50;0.50;;;;;;;25.91;91.79;94509.59;5111574;28;20427;-54
2022/09/17 06:55:23;;;;;;;2.27;2.17;;;;;;;25.88;88.29;94503.75;5111897;28;20428;-54
2022/09/17 06:57:51;;;;;;;0.60;0.60;;;;;;;24.98;97.67;94510.41;5111172;28;20470;-53
2022/09/17 07:00:21;;;;;;;0.70;0.70;;;;;;;26.19;92.58;94496.06;5111670;28;20424;-53
2022/09/17 07:02:58;;;;;;;1.20;1.10;;;;;;;25.55;91.40;94478.91;5111788;28;20432;-53
2022/09/17 07:05:28;;;;;;;2.10;1.70;;;;;;;25.47;93.40;94513.38;5111626;28;20477;-53
2022/09/17 07:07:56;;;;;;;0.50;0.43;;;;;;;25.87;93.39;94501.44;5111330;28;20434;-54
2022/09/17 07:10:25;;;;;;;0.77;0.77;;;;;;;25.68;93.67;94499.06;5111126;28;20427;-54
2022/09/17 07:12:54;;;;;;;1.87;1.63;;;;;;;25.09;97.40;94497.69;5111253;28;20435;-55
2022/09/17 07:15:24;;;;;;;0.80;0.60;;;;;;;26.05;91.00;94491.38;5111311;28;20966;-51
2022/09/17 07:17:52;;;;;;;0.70;0.67;;;;;;;27.15;75.56;94483.88;5111435;28;20441;-53
2022/09/17 07:20:21;;;;;;;0.60;0.50;;;;;;;28.21;69.90;94469.69;5111046;28;20436;-53
2022/09/17 07:22:56;;;;;;;0.70;0.70;;;;;;;27.99;67.91;94471.78;5111222;28;20432;-52
2022/09/17 07:25:25;;;;;;;0.70;0.70;;;;;;;28.67;67.18;94450.22;5111304;28;20431;-52
2022/09/17 07:27:54;;;;;;;16.23;2.53;;;;;;;28.88;61.89;94458.19;5110852;28;20426;-53
2022/09/17 07:30:24;;;;;;;0.70;0.70;;;;;;;27.79;62.88;94344.72;5111676;28;20910;-53
2022/09/17 07:32:52;;;;;;;4.93;1.53;;;;;;;28.70;64.29;94457.59;5114771;28;20431;-53
2022/09/17 07:35:20;;;;;;;0.60;0.40;;;;;;;29.08;63.48;94461.88;5114834;28;20432;-51
2022/09/17 07:37:48;;;;;;;0.70;0.70;;;;;;;29.09;57.69;94444.34;5114982;28;20922;-52
2022/09/17 07:40:17;;;;;;;2.77;0.60;;;;;;;28.75;58.68;94462.63;5114862;27;20481;-52
2022/09/17 07:42:46;;;;;;;0.60;0.60;;;;;;;28.66;58.62;94460.38;5114932;28;20927;-52
2022/09/17 07:45:14;;;;;;;3.70;0.73;;;;;;;28.30;57.45;94457.19;5115154;28;20950;-51
2022/09/17 07:47:44;;;;;;;1.90;0.70;;;;;;;28.17;62.22;94449.88;5114472;27;20449;-52
2022/09/17 07:50:12;;;;;;;2.00;0.70;;;;;;;28.14;65.16;94467.03;5114648;28;20426;-52
2022/09/17 07:52:46;;;;;;;0.90;0.40;;;;;;;29.52;57.93;94460.97;5114652;28;20423;-52
2022/09/17 07:55:15;;;;;;;6.53;0.60;;;;;;;29.96;55.87;94463.47;5114893;28;20438;-52
2022/09/17 07:57:43;;;;;;;0.40;0.30;;;;;;;30.30;52.44;94454.38;5114286;28;20468;-52
2022/09/17 08:00:13;;;;;;;0.50;0.40;;;;;;;30.87;48.44;94456.91;5114153;28;20487;-53
2022/09/17 08:02:42;;;;;;;2.50;2.30;;;;;;;31.52;48.12;94456.06;5114692;28;20482;-52
2022/09/17 08:05:12;;;;;;;0.40;0.40;;;;;;;31.95;46.32;94470.34;5114523;28;20437;-51
2022/09/17 08:07:40;;;;;;;0.40;0.30;;;;;;;32.07;43.11;94452.50;5114366;28;20426;-51
2022/09/17 08:10:09;;;;;;;0.80;0.80;;;;;;;31.23;45.10;94439.41;5114033;27;20433;-52
2022/09/17 08:12:37;;;;;;;1.33;0.50;;;;;;;31.20;45.71;94421.09;5114255;28;20469;-52
2022/09/17 08:15:07;;;;;;;0.50;0.50;;;;;;;31.62;46.25;94426.88;5114672;28;20430;-52
2022/09/17 08:17:36;;;;;;;1.43;0.57;;;;;;;31.78;43.77;94435.91;5114208;28;20421;-52
2022/09/17 08:20:06;;;;;;;1.13;1.03;;;;;;;31.66;44.12;94422.88;5114272;28;20474;-52
2022/09/17 08:22:36;;;;;;;0.57;0.57;;;;;;;30.57;47.94;94419.53;5113681;28;20446;-52
2022/09/17 08:25:04;;;;;;;1.70;0.90;;;;;;;30.71;48.88;94430.25;5114451;28;20421;-53
2022/09/17 08:27:33;;;;;;;1.10;0.80;;;;;;;30.87;48.64;94432.28;5113883;28;20432;-52
2022/09/17 08:30:01;;;;;;;0.50;0.30;;;;;;;30.46;49.54;94425.19;5114019;28;20922;-52
2022/09/17 08:32:30;;;;;;;4.83;1.13;;;;;;;30.15;50.27;94410.09;5113882;28;20425;-52
2022/09/17 08:34:58;;;;;;;0.70;0.67;;;;;;;30.73;49.93;94405.97;5113537;28;20434;-51
2022/09/17 08:37:28;;;;;;;1.70;0.63;;;;;;;31.37;46.56;94395.28;5113878;28;20437;-52
2022/09/17 08:39:58;;;;;;;0.60;0.60;;;;;;;31.93;46.00;94408.94;5114140;28;20898;-52
2022/09/17 08:42:37;;;;;;;0.73;0.70;;;;;;;31.52;46.26;94398.53;5113460;28;20429;-52
2022/09/17 08:45:10;;;;;;;1.67;0.50;;;;;;;30.90;48.26;94385.72;5113709;28;20921;-51
2022/09/17 08:47:42;;;;;;;0.67;0.67;;;;;;;31.65;47.06;94395.91;5113986;28;20801;-51
2022/09/17 08:50:15;;;;;;;0.50;0.50;;;;;;;31.12;49.42;94389.56;5113885;28;20425;-52
2022/09/17 08:52:58;;;;;;;4.40;1.50;;;;;;;31.64;48.58;94388.88;5113645;28;20422;-50
2022/09/17 08:55:36;;;;;;;0.80;0.60;;;;;;;31.58;48.61;94383.13;5113680;28;20454;-57
2022/09/17 08:58:42;;;;;;;0.40;0.30;;;;;;;31.60;46.99;94304.03;5113115;28;20466;-57
2022/09/17 09:01:24;;;;;;;0.50;0.40;;;;;;;32.33;47.09;94360.19;5110944;27;20446;-56
2022/09/17 09:04:05;;;;;;;0.90;0.77;;;;;;;32.86;44.98;94345.06;5113366;28;20503;-56
2022/09/17 09:06:41;;;;;;;0.70;0.60;;;;;;;32.44;45.05;94355.19;5112372;28;20423;-56
2022/09/17 09:09:14;;;;;;;0.97;0.80;;;;;;;33.27;43.87;94345.06;5113747;28;20815;-57
2022/09/17 09:11:48;;;;;;;0.53;0.50;;;;;;;33.44;44.97;94359.47;5113428;28;20525;-57
2022/09/17 09:14:23;;;;;;;0.40;0.30;;;;;;;33.27;44.10;94356.03;5113633;28;20789;-58
2022/09/17 09:16:54;;;;;;;0.50;0.50;;;;;;;33.04;44.96;94364.59;5113259;28;20491;-57
2022/09/17 09:19:24;;;;;;;1.40;1.30;;;;;;;32.88;45.13;94351.66;5113084;28;20476;-59
2022/09/17 09:22:04;;;;;;;1.90;0.60;;;;;;;33.44;44.02;94348.50;5113414;28;20814;-59
2022/09/17 09:24:41;;;;;;;0.73;0.40;;;;;;;32.38;48.27;94344.00;5113406;27;20427;-59
2022/09/17 09:27:19;;;;;;;1.10;0.60;;;;;;;31.98;52.96;94335.22;5113097;28;20427;-60
2022/09/17 09:30:01;;;;;;;1.03;0.73;;;;;;;32.11;49.09;94324.31;5112968;28;20430;-59
2022/09/17 09:32:44;;;;;;;0.40;0.30;;;;;;;32.06;50.88;94335.03;5113101;28;20955;-60
2022/09/17 09:35:18;;;;;;;0.47;0.40;;;;;;;32.01;52.23;94328.88;5112722;28;20425;-60
2022/09/17 09:37:55;;;;;;;0.40;0.30;;;;;;;32.46;49.81;94328.88;5112922;28;20436;-61
2022/09/17 09:40:34;;;;;;;0.40;0.30;;;;;;;32.84;46.52;94328.28;5112948;28;20471;-61
2022/09/17 09:43:13;;;;;;;5.43;0.67;;;;;;;33.51;45.06;94318.03;5112736;28;20424;-60
2022/09/17 09:46:08;;;;;;;0.50;0.50;;;;;;;33.34;46.47;94314.66;5112940;28;20763;-59
2022/09/17 09:48:46;;;;;;;0.50;0.50;;;;;;;32.94;47.33;94311.47;5112612;27;20805;-60
2022/09/17 09:51:31;;;;;;;0.40;0.40;;;;;;;33.12;46.79;94309.00;5112874;28;20434;-60
2022/09/17 09:54:13;;;;;;;4.83;1.23;;;;;;;32.84;47.92;94300.81;5112339;28;20438;-59
2022/09/17 09:57:05;;;;;;;0.30;0.30;;;;;;;32.58;50.14;94294.50;5112197;28;20422;-60
2022/09/17 09:59:35;;;;;;;0.50;0.40;;;;;;;32.43;44.86;94294.09;5112567;28;20984;-59
2022/09/17 10:02:04;;;;;;;0.30;0.20;;;;;;;32.84;45.68;94311.81;5112650;28;20423;-59
2022/09/17 10:04:33;;;;;;;0.53;0.50;;;;;;;32.90;43.80;94308.06;5112349;28;20915;-60
2022/09/17 10:07:04;;;;;;;0.80;0.40;;;;;;;32.25;50.09;94318.47;5112697;28;20428;-60
2022/09/17 10:09:34;;;;;;;5.00;0.50;;;;;;;32.33;53.95;94324.56;5112677;28;20414;-60
2022/09/17 10:12:05;;;;;;;0.40;0.40;;;;;;;32.92;48.13;94289.19;5112309;28;20431;-60
2022/09/17 10:14:36;;;;;;;0.53;0.40;;;;;;;34.10;43.26;94311.88;5112541;28;20430;-60
2022/09/17 10:17:22;;;;;;;1.03;0.60;;;;;;;35.12;38.92;94315.75;5112292;28;20434;-59
2022/09/17 10:20:14;;;;;;;0.67;0.50;;;;;;;34.93;35.96;94332.13;5112408;28;20471;-59
2022/09/17 10:22:49;;;;;;;0.30;0.30;;;;;;;35.94;35.80;94336.16;5112481;28;20272;-60
2022/09/17 10:25:33;;;;;;;0.47;0.40;;;;;;;35.68;35.71;94346.63;5112116;28;20923;-60
2022/09/17 10:28:05;;;;;;;0.40;0.30;;;;;;;34.64;34.36;94350.09;5110411;28;20251;-57
2022/09/17 10:30:35;;;;;;;0.50;0.50;;;;;;;33.03;36.28;94358.31;5112304;28;20225;-56
2022/09/17 10:33:29;;;;;;;5.10;0.40;;;;;;;32.17;38.65;94404.88;5112049;28;20292;-55
2022/09/17 10:36:01;;;;;;;0.87;0.87;;;;;;;31.68;40.73;94398.56;5093168;28;20284;-55
2022/09/17 10:38:32;;;;;;;0.40;0.33;;;;;;;31.21;43.29;94402.69;5112168;28;20907;-56
2022/09/17 10:41:12;;;;;;;16.67;0.70;;;;;;;32.59;39.53;94409.28;5112274;28;20482;-56
2022/09/17 10:43:41;;;;;;;5.10;0.83;;;;;;;32.24;41.03;94423.88;5112381;28;20431;-56
2022/09/17 10:46:15;;;;;;;1.67;0.60;;;;;;;32.35;41.78;94424.41;5112321;28;20428;-56
2022/09/17 10:48:57;;;;;;;5.33;0.60;;;;;;;32.37;41.35;94443.16;5111940;28;20429;-56
2022/09/17 10:51:26;;;;;;;0.40;0.40;;;;;;;32.23;42.90;94443.50;5111929;28;20430;-56
2022/09/17 10:54:03;;;;;;;0.40;0.40;;;;;;;32.73;39.80;94454.81;5112242;28;20921;-56
2022/09/17 10:56:36;;;;;;;2.37;0.60;;;;;;;32.98;38.99;94378.03;5111933;28;20436;-55
2022/09/17 10:59:32;;;;;;;0.60;0.60;;;;;;;34.06;37.42;94446.72;5111845;28;20935;-58
2022/09/17 11:02:19;;;;;;;1.03;1.03;;;;;;;34.25;37.64;94434.72;5071028;28;20493;-59
2022/09/17 11:04:55;;;;;;;0.93;0.57;;;;;;;34.82;36.20;94438.34;5111805;28;20929;-59
2022/09/17 11:07:41;;;;;;;0.30;0.30;;;;;;;35.73;34.72;94423.25;5115597;28;20435;-58
2022/09/17 11:10:15;;;;;;;0.50;0.40;;;;;;;36.78;34.58;94412.72;5115643;28;20442;-58
2022/09/17 11:13:08;;;;;;;0.40;0.40;;;;;;;36.76;33.20;94390.28;5115924;28;20217;-58
2022/09/17 11:16:00;;;;;;;0.83;0.83;;;;;;;34.91;35.70;94408.91;5115802;27;20637;-58
2022/09/17 11:18:38;;;;;;;0.87;0.67;;;;;;;32.20;43.56;94428.69;5115523;28;20195;-59
2022/09/17 11:21:26;;;;;;;1.57;1.47;;;;;;;31.70;45.38;94420.06;5115312;28;20236;-59
2022/09/17 11:24:17;;;;;;;0.30;0.20;;;;;;;30.27;48.60;94412.22;5115413;28;20190;-60
2022/09/17 11:26:54;;;;;;;0.60;0.60;;;;;;;29.71;49.73;94392.03;5115486;28;20938;-60
2022/09/17 11:29:40;;;;;;;0.40;0.30;;;;;;;29.92;50.12;94404.63;5115573;28;20426;-60
2022/09/17 11:32:23;;;;;;;0.30;0.30;;;;;;;27.96;58.60;94403.72;5115334;28;20418;-61
2022/09/17 11:35:00;;;;;;;0.30;0.20;;;;;;;27.06;67.43;94401.94;5115758;28;20430;-61
2022/09/17 11:37:33;;;;;;;0.40;0.30;;;;;;;27.93;65.08;94399.09;5115274;28;20429;-60
2022/09/17 11:40:12;;;;;;;0.30;0.20;;;;;;;29.15;57.97;94381.88;5114817;28;20417;-60
2022/09/17 11:42:47;;;;;;;0.50;0.43;;;;;;;29.20;55.63;94378.72;5114969;28;20866;-60
2022/09/17 11:45:20;;;;;;;0.40;0.30;;;;;;;28.98;55.19;94369.22;5115091;28;20432;-60
2022/09/17 11:47:54;;;;;;;2.83;0.47;;;;;;;28.89;55.13;94367.00;5114764;28;20434;-60
2022/09/17 11:50:29;;;;;;;0.40;0.30;;;;;;;29.05;57.06;94348.09;5114912;28;20452;-60
2022/09/17 11:53:04;;;;;;;4.30;0.30;;;;;;;30.74;50.96;94341.84;5114977;28;20821;-60
2022/09/17 11:55:38;;;;;;;0.60;0.47;;;;;;;31.91;46.75;94331.84;5114788;28;20424;-60
2022/09/17 11:58:14;;;;;;;0.93;0.93;;;;;;;32.31;42.40;94324.97;5114801;28;20474;-60